Time;durP1;ratioP1;P1;durP2;ratioP2;P2;SDS_P1;SDS_P2;PMS_P1;PMS_P2;Temp;Humidity;BMP_temperature;BMP_pressure;BME280_temperature;BME280_humidity;BME280_pressure;Samples;Min_cycle;Max_cycle;Signal;HPM_P1;HPM_P2
2023/09/17 00:00:20;;;;;;;16.75;14.80;;;;;;;18.02;100.00;101465.19;5088885;28;20042;-64
2023/09/17 00:02:45;;;;;;;19.38;15.93;;;;;;;18.00;100.00;101460.91;5088560;28;20109;-61
2023/09/17 00:05:11;;;;;;;19.65;15.45;;;;;;;18.03;100.00;101460.72;5069594;28;20028;-65
2023/09/17 00:07:36;;;;;;;21.52;16.83;;;;;;;17.97;100.00;101466.41;5069996;28;20035;-64
2023/09/17 00:10:01;;;;;;;19.35;16.45;;;;;;;18.04;100.00;101465.97;5088263;28;20028;-64
2023/09/17 00:12:27;;;;;;;18.92;16.30;;;;;;;18.00;100.00;101455.56;5069389;28;20048;-61
2023/09/17 00:14:52;;;;;;;17.40;15.57;;;;;;;17.99;100.00;101461.81;5088310;28;20028;-63
2023/09/17 00:17:18;;;;;;;20.23;16.77;;;;;;;17.89;100.00;101454.38;5069992;28;20055;-62
2023/09/17 00:19:43;;;;;;;21.30;16.70;;;;;;;17.85;100.00;101443.94;5087151;28;20061;-66
2023/09/17 00:22:11;;;;;;;19.05;16.15;;;;;;;17.75;100.00;101446.25;5088155;28;20433;-64
2023/09/17 00:24:36;;;;;;;20.90;15.43;;;;;;;17.80;100.00;101446.88;5088231;28;20028;-62
2023/09/17 00:27:02;;;;;;;22.75;17.05;;;;;;;17.88;100.00;101441.97;5088911;28;20055;-64
2023/09/17 00:29:27;;;;;;;18.55;15.32;;;;;;;17.79;100.00;101434.50;5088442;28;20107;-62
2023/09/17 00:31:53;;;;;;;19.42;14.75;;;;;;;17.81;100.00;101436.13;5088464;28;20115;-64
2023/09/17 00:34:18;;;;;;;17.63;14.50;;;;;;;17.87;100.00;101440.25;5087813;28;20085;-64
2023/09/17 00:36:45;;;;;;;18.17;15.00;;;;;;;17.94;100.00;101444.28;5088217;28;20028;-61
2023/09/17 00:39:10;;;;;;;16.15;14.50;;;;;;;17.89;100.00;101443.69;5087864;28;20031;-64
2023/09/17 00:41:35;;;;;;;17.98;14.15;;;;;;;17.90;100.00;101440.06;5088001;28;20428;-65
2023/09/17 00:44:02;;;;;;;15.45;13.80;;;;;;;17.95;100.00;101426.50;5087973;28;20489;-64
2023/09/17 00:46:27;;;;;;;17.80;15.18;;;;;;;17.90;100.00;101432.06;5088146;28;20043;-64
2023/09/17 00:48:53;;;;;;;17.25;15.38;;;;;;;17.74;100.00;101429.41;5087260;28;20051;-63
2023/09/17 00:51:18;;;;;;;18.90;14.90;;;;;;;17.71;100.00;101428.72;5088393;28;20022;-61
2023/09/17 00:53:44;;;;;;;20.20;14.02;;;;;;;17.71;100.00;101428.72;5087835;28;20557;-63
2023/09/17 00:56:09;;;;;;;19.73;14.40;;;;;;;17.66;100.00;101416.50;5070092;28;20375;-61
2023/09/17 00:58:36;;;;;;;19.02;14.98;;;;;;;17.66;100.00;101415.63;5087965;28;20144;-64
2023/09/17 01:01:01;;;;;;;18.25;13.60;;;;;;;17.71;100.00;101407.38;5069813;28;20024;-64
2023/09/17 01:03:27;;;;;;;15.98;14.10;;;;;;;17.63;100.00;101411.34;5086838;28;20111;-63
2023/09/17 01:05:53;;;;;;;17.10;13.63;;;;;;;17.68;100.00;101414.63;5069834;28;20029;-62
2023/09/17 01:08:19;;;;;;;14.20;12.70;;;;;;;17.73;100.00;101413.50;5070006;28;20107;-64
2023/09/17 01:10:46;;;;;;;16.08;13.70;;;;;;;17.73;100.00;101408.16;5069901;28;20020;-64
2023/09/17 01:15:51;;;;;;;16.15;14.27;;;;;;;17.79;100.00;101399.84;5025691;26;20041;-67
2023/09/17 01:18:21;;;;;;;14.40;12.60;;;;;;;17.85;100.00;101404.81;5028817;28;20421;-64
2023/09/17 01:21:00;;;;;;;13.95;11.95;;;;;;;17.89;100.00;101406.38;5047314;28;20059;-65
2023/09/17 01:23:32;;;;;;;15.77;13.50;;;;;;;17.87;100.00;101402.06;5030027;28;20025;-63
2023/09/17 01:26:02;;;;;;;14.85;13.13;;;;;;;17.91;100.00;101400.97;5030247;28;20026;-63
2023/09/17 01:28:28;;;;;;;15.63;12.75;;;;;;;17.88;100.00;101399.31;5030112;28;20029;-65
2023/09/17 01:30:54;;;;;;;15.30;13.27;;;;;;;17.80;100.00;101399.75;5047695;28;20467;-65
2023/09/17 01:33:19;;;;;;;16.42;13.68;;;;;;;17.82;100.00;101391.66;5029000;28;20037;-63
2023/09/17 01:35:55;;;;;;;14.90;12.82;;;;;;;17.75;100.00;101390.28;5029588;28;20025;-64
2023/09/17 01:38:21;;;;;;;18.13;13.45;;;;;;;17.67;100.00;101394.22;5030101;28;20036;-62
2023/09/17 01:40:48;;;;;;;15.80;14.07;;;;;;;17.70;100.00;101389.69;5029475;28;20059;-63
2023/09/17 01:43:16;;;;;;;16.77;15.05;;;;;;;17.57;100.00;101385.03;5047360;28;20076;-65
2023/09/17 01:45:42;;;;;;;16.20;14.40;;;;;;;17.57;100.00;101382.34;5046659;28;20025;-61
2023/09/17 01:48:07;;;;;;;15.25;13.52;;;;;;;17.62;100.00;101377.66;5046804;28;20024;-64
2023/09/17 01:50:33;;;;;;;17.83;13.52;;;;;;;17.71;100.00;101373.63;5049053;28;20494;-64
2023/09/17 01:53:00;;;;;;;15.60;12.38;;;;;;;17.77;100.00;101367.94;5051352;28;20025;-63
2023/09/17 01:55:26;;;;;;;19.05;13.27;;;;;;;17.73;100.00;101365.53;5050832;28;20021;-63
2023/09/17 01:57:52;;;;;;;16.92;13.07;;;;;;;17.73;100.00;101369.03;5051873;28;20069;-64
2023/09/17 02:00:18;;;;;;;18.38;13.55;;;;;;;17.74;100.00;101367.25;5033612;28;20098;-64
2023/09/17 02:02:47;;;;;;;14.77;13.13;;;;;;;17.74;100.00;101369.91;5051693;28;20487;-63
2023/09/17 02:05:20;;;;;;;16.02;13.63;;;;;;;17.79;100.00;101357.19;5050770;28;20021;-65
2023/09/17 02:07:46;;;;;;;15.10;12.60;;;;;;;17.77;100.00;101369.75;5050961;28;20037;-63
2023/09/17 02:10:12;;;;;;;14.52;13.00;;;;;;;17.74;100.00;101372.56;5051180;28;20021;-62
2023/09/17 02:12:38;;;;;;;18.02;13.07;;;;;;;17.75;100.00;101371.63;5051049;28;20025;-66
2023/09/17 02:15:04;;;;;;;17.15;12.73;;;;;;;17.71;100.00;101372.75;5051378;28;20171;-64
2023/09/17 02:17:29;;;;;;;18.48;12.70;;;;;;;17.67;100.00;101372.91;5051453;28;20055;-64
2023/09/17 02:19:55;;;;;;;13.20;10.75;;;;;;;17.73;100.00;101368.19;5050900;28;20032;-64
2023/09/17 02:22:20;;;;;;;16.20;12.73;;;;;;;17.70;100.00;101376.38;5051338;28;20087;-66
2023/09/17 02:24:46;;;;;;;14.27;12.52;;;;;;;17.72;100.00;101374.44;5051109;28;20037;-65
2023/09/17 02:27:13;;;;;;;13.52;12.13;;;;;;;17.74;100.00;101369.91;5050888;28;20047;-63
2023/09/17 02:29:39;;;;;;;19.15;12.73;;;;;;;17.73;100.00;101365.53;5050904;28;20033;-63
2023/09/17 02:32:04;;;;;;;14.43;12.73;;;;;;;17.74;100.00;101365.44;5051078;28;20114;-63
2023/09/17 02:34:30;;;;;;;15.10;12.63;;;;;;;17.80;100.00;101370.44;5050117;28;20029;-64
2023/09/17 02:36:55;;;;;;;13.15;11.75;;;;;;;17.87;100.00;101367.41;5050862;28;20021;-64
2023/09/17 02:39:20;;;;;;;14.38;11.70;;;;;;;17.85;100.00;101371.97;5050883;28;20108;-65
2023/09/17 02:41:46;;;;;;;14.90;11.68;;;;;;;17.87;100.00;101370.06;5050186;28;20059;-64
2023/09/17 02:44:11;;;;;;;13.88;12.05;;;;;;;17.82;100.00;101365.00;5050272;28;20032;-65
2023/09/17 02:46:37;;;;;;;13.85;12.40;;;;;;;17.79;100.00;101367.88;5049628;28;20029;-63
2023/09/17 02:49:02;;;;;;;13.77;12.32;;;;;;;17.77;100.00;101365.28;5049665;28;20059;-64
2023/09/17 02:51:27;;;;;;;20.63;13.27;;;;;;;17.72;100.00;101371.78;5032456;28;20075;-64
2023/09/17 02:53:53;;;;;;;14.68;13.05;;;;;;;17.70;100.00;101369.22;5050292;28;20044;-62
2023/09/17 02:56:18;;;;;;;14.43;12.82;;;;;;;17.74;100.00;101359.25;5050845;28;20036;-64
2023/09/17 02:58:44;;;;;;;16.60;14.20;;;;;;;17.59;100.00;101367.16;5050436;28;20028;-64
2023/09/17 03:01:17;;;;;;;15.98;13.00;;;;;;;17.59;100.00;101363.63;5049827;28;20023;-64
2023/09/17 03:03:47;;;;;;;17.85;14.20;;;;;;;17.58;100.00;101364.59;5049513;28;20032;-66
2023/09/17 03:06:12;;;;;;;14.95;13.35;;;;;;;17.54;100.00;101363.88;5049975;28;20029;-61
2023/09/17 03:08:41;;;;;;;18.45;13.95;;;;;;;17.45;100.00;101364.41;5049910;28;20033;-64
2023/09/17 03:11:12;;;;;;;16.33;14.05;;;;;;;17.48;100.00;101361.53;5050322;28;20410;-65
2023/09/17 03:13:39;;;;;;;16.30;13.98;;;;;;;17.45;100.00;101364.41;5031711;28;20521;-63
2023/09/17 03:16:05;;;;;;;18.77;15.02;;;;;;;17.47;100.00;101359.84;5049864;28;20024;-64
2023/09/17 03:18:30;;;;;;;18.77;15.40;;;;;;;17.43;100.00;101353.84;5048650;28;20017;-64
2023/09/17 03:20:55;;;;;;;23.23;15.30;;;;;;;17.41;100.00;101359.25;5050072;28;20479;-65
2023/09/17 03:23:21;;;;;;;17.33;14.52;;;;;;;17.40;100.00;101354.84;5049917;28;20094;-64
2023/09/17 03:25:46;;;;;;;20.17;15.80;;;;;;;17.36;100.00;101355.97;5031843;28;20033;-65
2023/09/17 03:28:11;;;;;;;19.40;15.90;;;;;;;17.33;100.00;101356.13;5049367;28;20060;-62
2023/09/17 03:30:37;;;;;;;17.48;15.65;;;;;;;17.36;100.00;101353.28;5048953;28;20033;-64
2023/09/17 03:33:03;;;;;;;21.98;16.08;;;;;;;17.28;100.00;101353.69;5048789;28;20032;-64
2023/09/17 03:35:28;;;;;;;18.83;15.65;;;;;;;17.40;100.00;101354.00;5049003;28;20482;-63
2023/09/17 03:37:54;;;;;;;18.73;14.88;;;;;;;17.44;100.00;101350.22;5049875;28;20076;-62
2023/09/17 03:40:19;;;;;;;21.77;16.80;;;;;;;17.41;100.00;101348.59;5049773;28;20112;-65
2023/09/17 03:42:46;;;;;;;19.83;15.25;;;;;;;17.42;100.00;101352.09;5048711;28;20136;-62
2023/09/17 03:45:12;;;;;;;17.77;15.77;;;;;;;17.26;100.00;101344.97;5049032;28;20025;-64
2023/09/17 03:47:42;;;;;;;18.27;16.27;;;;;;;17.32;100.00;101343.75;5048286;28;20025;-62
2023/09/17 03:50:08;;;;;;;19.63;16.15;;;;;;;17.14;100.00;101341.16;5049356;28;20025;-62
2023/09/17 03:52:35;;;;;;;19.88;16.45;;;;;;;17.15;100.00;101334.88;5048354;28;20090;-64
2023/09/17 03:55:01;;;;;;;22.20;17.98;;;;;;;17.10;100.00;101334.25;5030767;28;20024;-64
2023/09/17 03:57:27;;;;;;;20.33;17.20;;;;;;;17.11;100.00;101333.34;5031138;28;20029;-64
2023/09/17 03:59:54;;;;;;;18.90;16.48;;;;;;;17.02;100.00;101334.66;5031373;28;20024;-63
2023/09/17 04:02:20;;;;;;;19.73;16.63;;;;;;;17.13;100.00;101334.09;5031135;28;20029;-64
2023/09/17 04:04:46;;;;;;;17.85;15.90;;;;;;;17.12;100.00;101331.50;5047371;28;20033;-65
2023/09/17 04:07:12;;;;;;;18.77;16.83;;;;;;;17.17;100.00;101340.13;5048713;28;20051;-63
2023/09/17 04:09:37;;;;;;;19.00;16.40;;;;;;;17.21;100.00;101333.69;5048512;28;20028;-62
2023/09/17 04:12:04;;;;;;;20.48;16.92;;;;;;;17.21;100.00;101338.13;5048419;28;20098;-64
2023/09/17 04:14:31;;;;;;;19.33;17.15;;;;;;;17.12;100.00;101339.50;5047411;28;20056;-62
2023/09/17 04:16:59;;;;;;;18.05;16.15;;;;;;;17.23;100.00;101333.59;5048790;28;20066;-65
2023/09/17 04:19:24;;;;;;;19.67;17.38;;;;;;;17.24;100.00;101333.50;5047529;28;20102;-61
2023/09/17 04:21:50;;;;;;;20.08;16.60;;;;;;;17.17;100.00;101334.78;5048369;28;20452;-64
2023/09/17 04:24:16;;;;;;;19.48;17.00;;;;;;;17.12;100.00;101329.72;5048928;28;20052;-65
2023/09/17 04:26:44;;;;;;;21.00;16.60;;;;;;;17.08;100.00;101337.94;5048784;28;20108;-64
2023/09/17 04:29:10;;;;;;;;;;;;;;;17.15;100.00;101331.34;5049174;28;20025;-64
2023/09/17 04:31:35;;;;;;;20.90;16.23;;;;;;;17.08;100.00;101333.50;5048637;28;20015;-60
2023/09/17 04:34:01;;;;;;;19.83;16.88;;;;;;;17.12;100.00;101336.84;5047702;28;20029;-63
2023/09/17 04:36:26;;;;;;;21.02;17.65;;;;;;;17.15;100.00;101336.66;5048554;28;20100;-64
2023/09/17 04:38:52;;;;;;;22.25;16.90;;;;;;;17.15;100.00;101340.22;5048943;28;20112;-64
2023/09/17 04:41:17;;;;;;;19.80;16.92;;;;;;;17.17;100.00;101342.78;5048767;28;20025;-65
2023/09/17 04:43:43;;;;;;;20.83;16.73;;;;;;;17.14;100.00;101338.50;5047738;28;20078;-64
2023/09/17 04:46:09;;;;;;;16.48;14.77;;;;;;;17.21;100.00;101331.03;5048044;28;20060;-64
2023/09/17 04:48:34;;;;;;;21.15;16.80;;;;;;;17.20;100.00;101331.97;5047391;28;20061;-63
2023/09/17 04:50:59;;;;;;;18.73;16.35;;;;;;;17.23;100.00;101338.91;5048377;28;20063;-64
2023/09/17 04:53:25;;;;;;;21.90;17.00;;;;;;;17.16;100.00;101333.94;5047857;28;20044;-65
2023/09/17 04:55:50;;;;;;;18.80;16.90;;;;;;;17.16;100.00;101328.59;5048090;28;20462;-65
2023/09/17 04:58:16;;;;;;;19.83;17.42;;;;;;;17.17;100.00;101330.34;5048774;28;20370;-65
2023/09/17 05:00:41;;;;;;;18.70;16.80;;;;;;;17.12;100.00;101335.03;5047818;28;20029;-63
2023/09/17 05:03:07;;;;;;;20.17;17.88;;;;;;;17.01;100.00;101330.25;5047111;28;20017;-65
2023/09/17 05:05:32;;;;;;;20.35;17.38;;;;;;;17.05;100.00;101330.97;5047928;28;20025;-63
2023/09/17 05:07:57;;;;;;;21.35;17.25;;;;;;;16.97;100.00;101326.03;5046868;28;20044;-63
2023/09/17 05:10:23;;;;;;;21.15;18.25;;;;;;;16.94;100.00;101328.88;5047585;28;20369;-63
2023/09/17 05:12:49;;;;;;;20.90;18.55;;;;;;;16.91;100.00;101327.22;5048523;28;20048;-64
2023/09/17 05:15:14;;;;;;;22.45;18.60;;;;;;;16.89;100.00;101326.44;5047659;28;20045;-62
2023/09/17 05:17:39;;;;;;;23.30;18.60;;;;;;;16.92;100.00;101326.28;5047016;28;20025;-63
2023/09/17 05:20:06;;;;;;;21.02;18.52;;;;;;;16.97;100.00;101325.16;5047957;28;20447;-64
2023/09/17 05:22:32;;;;;;;22.98;19.40;;;;;;;16.91;100.00;101326.38;5047852;28;20056;-64
2023/09/17 05:24:57;;;;;;;27.73;19.83;;;;;;;16.75;100.00;101319.22;5047751;28;20107;-63
2023/09/17 05:27:24;;;;;;;22.73;19.70;;;;;;;16.76;100.00;101326.25;5047163;28;20025;-65
2023/09/17 05:29:50;;;;;;;23.00;19.73;;;;;;;16.72;100.00;101335.34;5047667;28;20159;-65
2023/09/17 05:32:16;;;;;;;22.40;19.70;;;;;;;16.70;100.00;101337.19;5047021;28;20104;-64
2023/09/17 05:34:42;;;;;;;24.48;19.50;;;;;;;16.70;100.00;101337.19;5046652;28;20029;-64
2023/09/17 05:37:07;;;;;;;22.50;20.10;;;;;;;16.71;100.00;101332.75;5047397;28;20025;-65
2023/09/17 05:39:33;;;;;;;23.10;18.95;;;;;;;16.78;100.00;101328.81;5047021;28;20525;-66
2023/09/17 05:41:58;;;;;;;23.23;20.73;;;;;;;16.77;100.00;101332.44;5047213;28;20025;-64
2023/09/17 05:44:24;;;;;;;23.10;18.88;;;;;;;16.80;100.00;101326.94;5046729;28;20459;-62
2023/09/17 05:46:51;;;;;;;25.80;20.42;;;;;;;16.82;100.00;101327.72;5029547;28;20123;-64
2023/09/17 05:49:16;;;;;;;21.30;18.85;;;;;;;16.96;100.00;101332.31;5046841;28;20032;-65
2023/09/17 05:51:41;;;;;;;28.33;20.25;;;;;;;16.95;100.00;101332.41;5047394;28;20029;-63
2023/09/17 05:54:06;;;;;;;24.00;19.85;;;;;;;16.92;100.00;101328.94;5047012;28;20032;-64
2023/09/17 05:56:32;;;;;;;25.65;19.70;;;;;;;17.01;100.00;101332.06;5047427;28;20029;-65
2023/09/17 05:58:57;;;;;;;21.73;18.33;;;;;;;17.05;100.00;101333.63;5046295;28;20479;-64
2023/09/17 06:01:23;;;;;;;22.63;19.65;;;;;;;17.02;100.00;101326.66;5047493;28;20021;-63
2023/09/17 06:03:48;;;;;;;22.70;18.75;;;;;;;17.05;100.00;101325.63;5046682;28;20033;-61
2023/09/17 06:06:13;;;;;;;24.75;19.15;;;;;;;17.08;100.00;101330.84;5046401;28;20029;-64
2023/09/17 06:08:39;;;;;;;22.92;19.27;;;;;;;17.07;100.00;101329.13;5023199;28;20089;-65
2023/09/17 06:11:04;;;;;;;18.83;16.60;;;;;;;17.11;100.00;101327.13;5046783;28;20035;-63
2023/09/17 06:13:29;;;;;;;20.48;17.90;;;;;;;17.05;100.00;101320.31;5028841;28;20039;-65
2023/09/17 06:15:55;;;;;;;23.98;18.40;;;;;;;17.08;100.00;101317.53;5047565;28;20511;-62
2023/09/17 06:18:20;;;;;;;21.75;18.67;;;;;;;17.05;100.00;101318.53;5046816;28;20018;-66
2023/09/17 06:20:46;;;;;;;23.40;18.58;;;;;;;17.02;100.00;101315.16;5045301;28;20420;-65
2023/09/17 06:23:11;;;;;;;20.83;17.85;;;;;;;17.04;100.00;101313.28;5045694;28;20731;-62
2023/09/17 06:25:37;;;;;;;21.55;18.10;;;;;;;16.97;100.00;101314.53;5046619;28;20116;-63
2023/09/17 06:28:03;;;;;;;23.92;17.83;;;;;;;17.08;100.00;101308.66;5046097;28;20091;-68
2023/09/17 06:30:29;;;;;;;22.45;19.13;;;;;;;17.10;100.00;101309.44;5029739;28;20033;-68
2023/09/17 06:32:54;;;;;;;25.65;18.88;;;;;;;17.16;100.00;101312.63;5028351;28;20035;-67
2023/09/17 06:35:19;;;;;;;18.77;16.75;;;;;;;17.28;100.00;101320.91;5046912;28;20025;-65
2023/09/17 06:37:45;;;;;;;19.40;17.30;;;;;;;17.30;100.00;101319.88;5048316;28;20033;-60
2023/09/17 06:40:13;;;;;;;25.33;18.92;;;;;;;17.13;100.00;101334.09;5032124;28;20024;-65
2023/09/17 06:42:39;;;;;;;23.30;19.42;;;;;;;17.07;100.00;101329.13;5046587;28;20041;-64
2023/09/17 06:45:05;;;;;;;21.95;18.77;;;;;;;17.01;100.00;101324.94;5049476;28;20016;-63
2023/09/17 06:47:30;;;;;;;22.52;19.35;;;;;;;16.91;100.00;101334.34;5031223;28;20063;-65
2023/09/17 06:49:56;;;;;;;22.30;19.77;;;;;;;16.89;100.00;101325.59;5049345;28;20111;-64
2023/09/17 06:52:23;;;;;;;28.20;21.92;;;;;;;16.73;100.00;101338.84;5032861;28;20024;-67
2023/09/17 06:54:49;;;;;;;27.10;22.25;;;;;;;16.66;100.00;101328.53;5050808;28;20112;-64
2023/09/17 06:57:14;;;;;;;28.80;23.77;;;;;;;16.46;100.00;101331.38;5050147;28;20116;-65
2023/09/17 06:59:40;;;;;;;25.33;22.60;;;;;;;16.42;100.00;101333.31;5050289;28;20083;-66
2023/09/17 07:02:05;;;;;;;28.60;23.38;;;;;;;16.31;100.00;101331.19;5031793;28;20032;-64
2023/09/17 07:04:31;;;;;;;28.33;24.10;;;;;;;16.29;100.00;101333.06;5047406;28;20368;-66
2023/09/17 07:07:00;;;;;;;33.60;25.08;;;;;;;16.31;100.00;101336.50;5047156;28;20123;-62
2023/09/17 07:09:26;;;;;;;30.05;25.25;;;;;;;16.17;100.00;101329.22;5049565;28;20427;-64
2023/09/17 07:11:51;;;;;;;30.20;25.73;;;;;;;16.10;100.00;101335.78;5050072;28;20064;-65
2023/09/17 07:14:17;;;;;;;33.92;26.38;;;;;;;16.04;100.00;101334.28;5049515;28;20048;-65
2023/09/17 07:16:42;;;;;;;32.50;26.55;;;;;;;16.13;100.00;101340.94;5049945;28;20055;-66
2023/09/17 07:19:08;;;;;;;31.70;26.23;;;;;;;16.19;100.00;101348.59;5036599;28;20029;-64
2023/09/17 07:21:33;;;;;;;30.60;26.10;;;;;;;16.15;100.00;101342.59;5048605;28;20032;-64
2023/09/17 07:23:59;;;;;;;31.33;26.25;;;;;;;16.09;100.00;101342.03;5049686;28;20693;-68
2023/09/17 07:26:24;;;;;;;34.78;28.63;;;;;;;15.98;100.00;101350.56;5048997;28;20472;-65
2023/09/17 07:28:49;;;;;;;38.25;28.05;;;;;;;15.95;100.00;101351.50;5049825;28;20083;-63
2023/09/17 07:31:15;;;;;;;35.22;27.58;;;;;;;15.92;100.00;101341.88;5049279;28;20025;-62
2023/09/17 07:33:42;;;;;;;36.10;27.80;;;;;;;15.86;100.00;101347.50;5048286;28;20044;-60
2023/09/17 07:36:08;;;;;;;32.85;26.50;;;;;;;15.87;100.00;101343.91;5048135;28;20029;-62
2023/09/17 07:38:34;;;;;;;34.75;27.15;;;;;;;15.82;100.00;101337.09;5048749;28;20067;-58
2023/09/17 07:40:59;;;;;;;35.35;27.30;;;;;;;15.86;100.00;101334.22;5048900;28;20055;-60
2023/09/17 07:43:24;;;;;;;34.65;26.83;;;;;;;16.06;100.00;101347.50;5049312;28;20371;-63
2023/09/17 07:45:50;;;;;;;36.28;27.35;;;;;;;16.07;100.00;101342.09;5048921;28;20060;-65
2023/09/17 07:48:15;;;;;;;37.00;28.10;;;;;;;15.97;100.00;101333.72;5048754;28;20039;-66
2023/09/17 07:50:41;;;;;;;34.08;27.77;;;;;;;16.08;100.00;101340.31;5048587;28;20031;-68
2023/09/17 07:53:07;;;;;;;32.15;26.23;;;;;;;16.08;100.00;101341.19;5049310;28;20055;-66
2023/09/17 07:55:32;;;;;;;29.42;25.00;;;;;;;16.21;100.00;101335.25;5048180;28;20025;-65
2023/09/17 07:57:58;;;;;;;34.50;26.27;;;;;;;16.10;100.00;101335.78;5048501;28;20071;-68
2023/09/17 08:00:23;;;;;;;33.15;26.17;;;;;;;16.24;100.00;101337.75;5048146;28;20021;-63
2023/09/17 08:02:49;;;;;;;34.97;26.23;;;;;;;16.25;100.00;101331.47;5030493;28;20483;-64
2023/09/17 08:05:15;;;;;;;33.38;24.95;;;;;;;16.22;100.00;101336.97;5048593;28;20056;-66
2023/09/17 08:07:40;;;;;;;31.80;24.75;;;;;;;16.29;100.00;101346.38;5047955;28;20092;-64
2023/09/17 08:10:09;;;;;;;30.30;24.00;;;;;;;16.33;100.00;101339.09;5047205;28;20037;-63
2023/09/17 08:12:35;;;;;;;32.50;25.23;;;;;;;16.32;100.00;101351.53;5047413;28;20029;-64
2023/09/17 08:15:01;;;;;;;34.90;25.38;;;;;;;16.23;100.00;101338.69;5047848;28;20056;-64
2023/09/17 08:17:26;;;;;;;32.28;24.88;;;;;;;16.25;100.00;101336.81;5046839;28;20476;-66
2023/09/17 08:19:52;;;;;;;35.30;24.13;;;;;;;16.22;100.00;101340.47;5045541;28;20367;-63
2023/09/17 08:22:18;;;;;;;32.80;25.23;;;;;;;16.10;100.00;101333.97;5048522;28;20036;-67
2023/09/17 08:24:43;;;;;;;34.40;26.35;;;;;;;16.14;100.00;101332.88;5047645;28;20056;-64
2023/09/17 08:27:09;;;;;;;31.83;24.52;;;;;;;16.11;100.00;101335.72;5048612;28;20083;-67
2023/09/17 08:29:34;;;;;;;34.63;25.73;;;;;;;16.24;100.00;101324.44;5030610;28;20068;-65
2023/09/17 08:31:59;;;;;;;30.17;24.35;;;;;;;16.38;100.00;101321.09;5047768;28;20021;-63
2023/09/17 08:34:25;;;;;;;31.67;24.65;;;;;;;16.33;100.00;101324.00;5047900;28;20040;-62
2023/09/17 08:36:51;;;;;;;29.90;23.67;;;;;;;16.37;100.00;101325.56;5047277;28;20021;-61
2023/09/17 08:39:16;;;;;;;29.05;23.52;;;;;;;16.37;100.00;101330.88;5047913;28;20071;-62
2023/09/17 08:41:42;;;;;;;30.83;22.67;;;;;;;16.50;100.00;101335.59;5047244;28;20036;-63
2023/09/17 08:44:08;;;;;;;29.52;23.63;;;;;;;16.40;100.00;101336.03;5045302;28;20025;-62
2023/09/17 08:46:35;;;;;;;29.45;22.77;;;;;;;16.47;100.00;101341.06;5028799;28;20035;-62
2023/09/17 08:49:01;;;;;;;33.72;23.42;;;;;;;16.43;100.00;101340.34;5046682;28;20017;-62
2023/09/17 08:51:30;;;;;;;27.65;23.33;;;;;;;16.52;100.00;101341.66;5047620;28;20017;-63
2023/09/17 08:53:59;;;;;;;26.50;21.95;;;;;;;16.71;100.00;101341.59;5042099;28;20040;-66
2023/09/17 08:56:26;;;;;;;30.45;23.83;;;;;;;16.69;100.00;101340.81;5048274;28;20047;-66
2023/09/17 08:58:53;;;;;;;25.75;21.65;;;;;;;16.79;100.00;101325.22;5030091;28;20155;-65
2023/09/17 09:01:23;;;;;;;28.80;22.88;;;;;;;16.74;100.00;101328.09;5031528;28;20029;-63
2023/09/17 09:03:49;;;;;;;25.60;20.95;;;;;;;17.00;100.00;101330.34;5048495;28;20027;-64
2023/09/17 09:06:15;;;;;;;25.88;20.15;;;;;;;17.15;100.00;101329.56;5027517;28;20379;-67
2023/09/17 09:08:42;;;;;;;24.58;20.02;;;;;;;17.39;100.00;101326.50;5028846;28;20029;-66
2023/09/17 09:11:08;;;;;;;22.73;19.08;;;;;;;17.48;100.00;101326.91;5029424;28;20013;-62
2023/09/17 09:13:35;;;;;;;22.92;19.35;;;;;;;17.60;100.00;101330.69;5046375;28;20028;-61
2023/09/17 09:16:01;;;;;;;22.95;18.10;;;;;;;17.57;100.00;101326.41;5029503;28;20071;-63
2023/09/17 09:18:26;;;;;;;21.98;17.77;;;;;;;17.80;100.00;101326.94;5027826;28;20451;-62
2023/09/17 09:20:51;;;;;;;23.13;17.85;;;;;;;17.96;100.00;101326.91;5046637;28;20705;-67
2023/09/17 09:23:17;;;;;;;20.08;16.58;;;;;;;17.97;100.00;101333.94;5046914;28;20528;-62
2023/09/17 09:25:42;;;;;;;20.00;17.40;;;;;;;17.96;100.00;101318.03;5046546;28;20383;-68
2023/09/17 09:28:08;;;;;;;19.95;16.20;;;;;;;18.06;100.00;101332.53;5046075;28;20021;-67
2023/09/17 09:30:35;;;;;;;21.63;15.38;;;;;;;18.00;100.00;101324.94;5046197;28;20051;-62
2023/09/17 09:33:01;;;;;;;22.00;16.95;;;;;;;18.05;100.00;101334.38;5046164;28;20534;-62
2023/09/17 09:35:26;;;;;;;19.45;16.25;;;;;;;18.08;100.00;101335.13;5046273;28;20107;-64
2023/09/17 09:37:53;;;;;;;18.45;15.57;;;;;;;17.87;100.00;101336.28;5028532;28;20522;-67
2023/09/17 09:40:19;;;;;;;19.08;14.85;;;;;;;18.08;100.00;101335.13;5046790;28;20013;-66
2023/09/17 09:42:46;;;;;;;18.52;14.93;;;;;;;18.19;100.00;101333.59;5046682;28;20718;-68
2023/09/17 09:45:15;;;;;;;17.75;14.30;;;;;;;18.28;100.00;101326.00;5046411;28;20091;-67
2023/09/17 09:47:45;;;;;;;16.45;14.05;;;;;;;18.16;100.00;101324.91;5045794;28;20437;-66
2023/09/17 09:50:20;;;;;;;16.40;13.77;;;;;;;18.18;100.00;101321.22;5046449;28;20103;-67
2023/09/17 09:52:48;;;;;;;17.73;14.63;;;;;;;18.36;100.00;101313.06;5046658;28;20357;-59
2023/09/17 09:55:13;;;;;;;18.00;13.98;;;;;;;18.37;100.00;101305.94;5046152;28;20025;-63
2023/09/17 09:57:39;;;;;;;34.13;15.40;;;;;;;18.52;100.00;101309.47;5045996;28;20432;-63
2023/09/17 10:00:14;;;;;;;17.65;13.73;;;;;;;18.56;100.00;101297.66;5028781;28;20033;-63
2023/09/17 10:02:40;;;;;;;20.13;14.45;;;;;;;18.49;100.00;101294.53;5029215;28;20033;-64
2023/09/17 10:05:18;;;;;;;15.13;13.50;;;;;;;18.41;100.00;101294.13;5046164;28;20021;-65
2023/09/17 10:07:47;;;;;;;17.13;14.57;;;;;;;18.44;100.00;101281.47;5046658;28;20025;-66
2023/09/17 10:10:13;;;;;;;15.85;13.07;;;;;;;18.38;100.00;101283.63;5046962;28;20131;-68
2023/09/17 10:12:38;;;;;;;13.15;11.50;;;;;;;18.59;100.00;101281.47;5050220;28;20108;-67
2023/09/17 10:15:05;;;;;;;13.65;11.68;;;;;;;18.83;100.00;101286.25;5051281;28;20040;-67
2023/09/17 10:17:35;;;;;;;14.30;11.35;;;;;;;18.93;100.00;101279.38;5049243;28;20091;-68
2023/09/17 10:20:06;;;;;;;11.32;9.40;;;;;;;18.94;100.00;101270.41;5033538;28;20476;-65
2023/09/17 10:22:34;;;;;;;12.07;9.82;;;;;;;19.20;100.00;101267.06;5051006;28;20471;-67
2023/09/17 10:25:01;;;;;;;11.85;10.45;;;;;;;18.96;100.00;101261.47;5050703;28;20090;-65
2023/09/17 10:27:26;;;;;;;13.30;10.48;;;;;;;18.59;100.00;101268.13;5033036;28;20071;-68
2023/09/17 10:29:52;;;;;;;13.98;11.40;;;;;;;18.58;100.00;101270.88;5033587;28;20028;-69
2023/09/17 10:32:18;;;;;;;14.20;10.73;;;;;;;18.72;100.00;101275.38;5031531;28;20025;-69
2023/09/17 10:34:45;;;;;;;13.70;11.57;;;;;;;18.60;100.00;101261.00;5049688;28;20032;-65
2023/09/17 10:37:14;;;;;;;15.55;11.35;;;;;;;18.64;100.00;101267.84;5032878;28;20017;-68
2023/09/17 10:39:39;;;;;;;16.77;10.43;;;;;;;18.74;100.00;101269.00;5015400;28;20016;-64
2023/09/17 10:42:05;;;;;;;14.40;11.50;;;;;;;18.76;100.00;101266.22;5032830;28;20032;-67
2023/09/17 10:44:36;;;;;;;17.15;11.52;;;;;;;18.66;100.00;101277.47;5049220;28;20032;-67
2023/09/17 10:47:03;;;;;;;16.75;12.63;;;;;;;18.69;100.00;101276.41;5048717;28;20031;-68
2023/09/17 10:49:31;;;;;;;14.40;11.43;;;;;;;18.73;100.00;101272.63;5048009;28;20479;-69
2023/09/17 10:51:57;;;;;;;15.18;11.00;;;;;;;18.94;100.00;101267.75;5032294;28;20021;-70
2023/09/17 10:54:22;;;;;;;18.25;11.80;;;;;;;18.93;100.00;101274.03;5031816;28;20033;-63
2023/09/17 10:56:48;;;;;;;17.70;12.38;;;;;;;18.83;100.00;101267.56;5049809;28;20552;-69
2023/09/17 10:59:15;;;;;;;20.42;12.35;;;;;;;18.58;100.00;101269.09;5049588;28;20025;-71